Terminal Aerodrome Forecast
Issued by NWS

Home | Current Version | Previous Version | Text Only | Print | Product List | Glossary On
Versions: 1 2 3 4 5 6 7 8 9 10 11 12 13 14 15 16 17 18 19 20 21
948
FTUS43 KLSX 211508 AAB
TAFUIN
TAF AMD
KUIN 211508Z 2115/2212 36006KT 1/2SM FG BKN002
      TEMPO 2115/2118 1/4SM FG BKN002
     FM220300 20004KT P6SM FEW200
     FM220900 VRB03KT 4SM BR FEW200=

USA.gov is the U.S. government's official web portal to all federal, state and local government web resources and services.